createdAt,value
2023-01-01T00:00:07.605Z,32.13
2023-01-01T00:03:10.850Z,32.17
2023-01-01T00:06:15.314Z,31.97
2023-01-01T00:09:37.215Z,30.17
2023-01-01T00:12:40.239Z,29.30
2023-01-01T00:15:43.300Z,30.27
2023-01-01T00:18:46.420Z,28.40
2023-01-01T00:21:49.579Z,28.77
2023-01-01T00:24:54.071Z,29.67
2023-01-01T00:27:57.089Z,27.40
2023-01-01T00:31:00.359Z,26.60
2023-01-01T00:34:03.414Z,27.77
2023-01-01T00:37:06.504Z,29.30
2023-01-01T00:40:12.218Z,28.33
2023-01-01T00:43:15.330Z,28.83
2023-01-01T00:46:18.460Z,27.67
2023-01-01T00:49:21.472Z,28.57
2023-01-01T00:52:24.547Z,29.47
2023-01-01T00:55:29.971Z,28.43
2023-01-01T00:58:33.029Z,30.13
2023-01-01T01:01:36.232Z,29.97
2023-01-01T01:04:39.368Z,29.70
2023-01-01T01:07:42.948Z,28.80
2023-01-01T01:10:47.441Z,28.43
2023-01-01T01:13:52.904Z,29.40
2023-01-01T01:16:56.228Z,29.90
2023-01-01T01:19:59.550Z,30.37
2023-01-01T01:23:02.590Z,30.97
2023-01-01T01:26:12.068Z,30.67
2023-01-01T01:29:15.114Z,29.93
2023-01-01T01:32:18.124Z,30.20
2023-01-01T01:35:21.257Z,30.30
2023-01-01T01:38:24.372Z,31.47
2023-01-01T01:41:30.038Z,30.57
2023-01-01T01:45:01.157Z,30.50
2023-01-01T01:48:04.429Z,31.47
2023-01-01T01:51:08.299Z,29.43
2023-01-01T01:54:15.467Z,30.27
2023-01-01T01:57:20.469Z,28.73
2023-01-01T02:00:24.076Z,29.47
2023-01-01T02:03:32.872Z,29.27
2023-01-01T02:06:39.973Z,28.90
2023-01-01T02:09:43.532Z,29.93
2023-01-01T02:12:48.237Z,29.80
2023-01-01T02:15:55.720Z,29.90
2023-01-01T02:19:03.332Z,28.40
2023-01-01T02:22:16.180Z,27.50
2023-01-01T02:25:29.791Z,28.60
2023-01-01T02:28:50.978Z,28.30
2023-01-01T02:32:01.158Z,27.30
2023-01-01T02:35:22.557Z,27.17
2023-01-01T02:38:31.655Z,27.00
2023-01-01T02:41:40.292Z,26.73
2023-01-01T02:44:49.936Z,26.03
2023-01-01T02:47:52.998Z,27.40
2023-01-01T02:50:59.388Z,26.10
2023-01-01T02:54:09.913Z,25.27
2023-01-01T02:57:21.840Z,24.80
2023-01-01T03:00:28.441Z,24.23
2023-01-01T03:03:39.374Z,25.17
2023-01-01T03:06:51.752Z,24.33
2023-01-01T03:10:02.416Z,24.20
2023-01-01T03:13:14.088Z,24.77
2023-01-01T03:16:24.263Z,24.77
2023-01-01T03:19:31.267Z,26.33
2023-01-01T03:25:47.660Z,26.47
2023-01-01T03:28:55.998Z,27.77
2023-01-01T03:32:03.905Z,29.30
2023-01-01T03:35:07.659Z,32.40
2023-01-01T03:38:16.670Z,32.70
2023-01-01T03:41:32.208Z,34.90
2023-01-01T03:44:40.197Z,35.90
2023-01-01T03:47:44.889Z,36.00
2023-01-01T03:50:58.244Z,36.80
2023-01-01T03:54:09.344Z,38.47
2023-01-01T03:57:19.233Z,37.87
2023-01-01T04:00:28.360Z,40.50
2023-01-01T04:03:38.886Z,42.20
2023-01-01T04:06:41.993Z,40.27
2023-01-01T04:09:51.075Z,41.67
2023-01-01T04:12:57.003Z,42.40
2023-01-01T04:16:00.053Z,43.17
2023-01-01T04:19:07.098Z,43.47
2023-01-01T04:22:10.348Z,43.17
2023-01-01T04:25:13.916Z,41.93
2023-01-01T04:28:16.989Z,42.97
2023-01-01T04:31:20.368Z,44.27
2023-01-01T04:34:25.227Z,44.90
2023-01-01T04:37:28.353Z,43.20
2023-01-01T04:40:31.623Z,44.00
2023-01-01T04:43:36.408Z,44.90
2023-01-01T04:46:39.645Z,43.70
2023-01-01T04:49:44.117Z,43.40
2023-01-01T04:52:51.307Z,42.93
2023-01-01T04:55:54.405Z,42.20
2023-01-01T04:58:58.783Z,43.07
2023-01-01T05:02:02.080Z,41.63
2023-01-01T05:05:07.513Z,42.50
2023-01-01T05:08:10.856Z,41.60
2023-01-01T05:11:15.318Z,43.47
2023-01-01T05:14:18.536Z,41.50
2023-01-01T05:17:23.216Z,41.50
2023-01-01T05:20:28.142Z,42.20
2023-01-01T05:23:31.414Z,39.90
2023-01-01T05:26:36.187Z,41.87
2023-01-01T05:29:39.367Z,41.70
2023-01-01T05:32:43.852Z,42.30
2023-01-01T05:35:55.237Z,41.67
2023-01-01T05:38:59.338Z,42.37
2023-01-01T05:42:02.444Z,42.17
2023-01-01T05:45:06.218Z,40.87
2023-01-01T05:48:09.543Z,41.20
2023-01-01T05:51:15.942Z,39.70
2023-01-01T05:57:21.030Z,39.87
2023-01-01T06:00:24.643Z,40.03
2023-01-01T06:03:27.830Z,38.93
2023-01-01T06:06:34.004Z,40.80
2023-01-01T06:09:37.179Z,37.70
2023-01-01T06:12:41.242Z,37.70
2023-01-01T06:15:44.864Z,40.30
2023-01-01T06:18:48.025Z,38.10
2023-01-01T06:21:53.197Z,38.57
2023-01-01T06:24:56.279Z,38.17
2023-01-01T06:27:59.654Z,37.07
2023-01-01T06:31:03.688Z,37.83
2023-01-01T06:34:06.930Z,38.37
2023-01-01T06:37:11.544Z,35.67
2023-01-01T06:40:14.983Z,35.00
2023-01-01T06:43:18.156Z,35.93
2023-01-01T06:46:23.394Z,35.40
2023-01-01T06:49:26.675Z,34.23
2023-01-01T06:52:31.493Z,31.33
2023-01-01T06:55:35.733Z,33.43
2023-01-01T06:58:38.950Z,31.53
2023-01-01T07:01:43.933Z,30.03
2023-01-01T07:04:47.810Z,29.87
2023-01-01T07:07:52.247Z,28.47
2023-01-01T07:10:57.532Z,30.57
2023-01-01T07:14:00.667Z,31.07
2023-01-01T07:17:03.967Z,30.20
2023-01-01T07:20:08.342Z,31.40
2023-01-01T07:23:13.950Z,29.67
2023-01-01T07:26:17.045Z,31.77
2023-01-01T07:29:20.114Z,31.70
2023-01-01T07:32:23.189Z,31.87
2023-01-01T07:35:26.470Z,30.77
2023-01-01T07:38:31.093Z,36.50
2023-01-01T07:41:34.761Z,35.63
2023-01-01T07:44:37.975Z,36.90
2023-01-01T07:47:41.495Z,37.00
2023-01-01T07:50:45.256Z,38.80
2023-01-01T07:53:49.758Z,36.40
2023-01-01T07:56:52.810Z,37.17
2023-01-01T07:59:55.928Z,34.70
2023-01-01T08:03:01.137Z,37.43
2023-01-01T08:06:08.583Z,37.37
2023-01-01T08:09:13.380Z,37.10
2023-01-01T08:12:16.699Z,38.10
2023-01-01T08:15:19.952Z,35.07
2023-01-01T08:18:23.089Z,33.80
2023-01-01T08:21:26.234Z,36.40
2023-01-01T08:24:30.859Z,32.80
2023-01-01T08:27:34.083Z,34.37
2023-01-01T08:30:37.205Z,51.97
2023-01-01T08:33:40.317Z,42.63
2023-01-01T08:36:43.570Z,41.27
2023-01-01T08:39:50.705Z,41.50
2023-01-01T08:42:53.793Z,38.47
2023-01-01T08:45:56.924Z,38.70
2023-01-01T08:49:00.121Z,40.17
2023-01-01T08:52:03.579Z,37.00
2023-01-01T08:55:08.910Z,38.60
2023-01-01T08:58:11.980Z,35.70
2023-01-01T09:01:15.869Z,35.73
2023-01-01T09:04:19.023Z,36.47
2023-01-01T09:07:22.191Z,38.87
2023-01-01T09:10:26.871Z,37.07
2023-01-01T09:13:30.866Z,42.47
2023-01-01T09:16:36.491Z,43.93
2023-01-01T09:19:43.192Z,43.07
2023-01-01T09:22:46.300Z,43.40
2023-01-01T09:25:50.858Z,42.43
2023-01-01T09:28:54.025Z,44.10
2023-01-01T09:31:57.080Z,42.87
2023-01-01T09:35:01.186Z,42.13
2023-01-01T09:38:04.309Z,42.23
2023-01-01T09:41:19.328Z,43.07
2023-01-01T09:44:40.880Z,50.30
2023-01-01T09:47:47.768Z,59.57
2023-01-01T09:50:51.256Z,64.87
2023-01-01T09:53:59.656Z,68.17
2023-01-01T09:57:11.364Z,68.53
2023-01-01T10:00:18.939Z,76.33
2023-01-01T10:03:37.157Z,80.17
2023-01-01T10:06:46.057Z,85.70
2023-01-01T10:09:59.689Z,88.50
2023-01-01T10:13:11.535Z,91.37
2023-01-01T10:16:24.625Z,87.83
2023-01-01T10:19:36.774Z,91.30
2023-01-01T10:22:45.792Z,89.60
2023-01-01T10:25:48.883Z,90.20
2023-01-01T10:29:02.267Z,86.97
2023-01-01T10:32:16.232Z,86.67
2023-01-01T10:35:26.858Z,83.40
2023-01-01T10:38:36.993Z,82.20
2023-01-01T10:41:40.131Z,83.07
2023-01-01T10:44:45.471Z,79.50
2023-01-01T10:48:13.980Z,78.10
2023-01-01T10:51:21.011Z,75.47
2023-01-01T10:54:34.393Z,72.87
2023-01-01T10:57:40.545Z,72.83
2023-01-01T11:00:58.611Z,71.13
2023-01-01T11:04:03.517Z,70.40
2023-01-01T11:07:08.101Z,68.47
2023-01-01T11:10:20.451Z,67.00
2023-01-01T11:13:24.932Z,65.03
2023-01-01T11:16:30.663Z,60.93
2023-01-01T11:19:36.612Z,61.10
2023-01-01T11:22:42.240Z,61.47
2023-01-01T11:25:59.038Z,58.60
2023-01-01T11:29:06.261Z,60.70
2023-01-01T11:32:13.557Z,56.63
2023-01-01T11:35:20.565Z,55.17
2023-01-01T11:38:29.828Z,53.73
2023-01-01T11:41:43.539Z,53.63
2023-01-01T11:44:50.097Z,51.80
2023-01-01T11:47:59.463Z,50.53
2023-01-01T11:51:06.146Z,49.23
2023-01-01T11:54:12.556Z,48.13
2023-01-01T11:57:19.587Z,45.70
2023-01-01T12:00:25.296Z,54.13
2023-01-01T12:03:34.291Z,58.00
2023-01-01T12:06:43.127Z,57.80
2023-01-01T12:09:55.801Z,58.50
2023-01-01T12:13:02.200Z,57.23
2023-01-01T12:16:13.199Z,58.17
2023-01-01T12:19:24.220Z,61.60
2023-01-01T12:22:27.519Z,54.07
2023-01-01T12:25:37.390Z,54.07
2023-01-01T12:28:57.004Z,53.03
2023-01-01T12:32:07.400Z,57.90
2023-01-01T12:35:21.284Z,54.10
2023-01-01T12:38:45.779Z,55.97
2023-01-01T12:42:00.139Z,56.33
2023-01-01T12:45:31.078Z,55.00
2023-01-01T12:48:50.018Z,55.67
2023-01-01T12:52:05.648Z,56.03
2023-01-01T12:55:48.217Z,60.60
2023-01-01T12:58:56.617Z,58.30
2023-01-01T13:02:03.230Z,55.37
2023-01-01T13:05:16.435Z,51.57
2023-01-01T13:08:21.027Z,49.93
2023-01-01T13:11:26.921Z,49.73
2023-01-01T13:14:40.111Z,48.27
2023-01-01T13:17:53.425Z,51.27
2023-01-01T13:20:59.685Z,58.43
2023-01-01T13:24:19.511Z,49.53
2023-01-01T13:28:04.887Z,37.40
2023-01-01T13:31:07.927Z,38.23
2023-01-01T13:34:53.700Z,36.37
2023-01-01T13:37:56.809Z,34.50
2023-01-01T13:41:01.352Z,35.20
2023-01-01T13:44:24.389Z,34.03
2023-01-01T13:47:38.200Z,32.03
2023-01-01T13:50:51.905Z,32.70
2023-01-01T13:54:13.329Z,31.10
2023-01-01T13:57:36.976Z,32.43
2023-01-01T14:00:50.012Z,25.90
2023-01-01T14:03:56.413Z,28.10
2023-01-01T14:07:24.972Z,26.77
2023-01-01T14:10:29.112Z,25.40
2023-01-01T14:13:41.562Z,25.73
2023-01-01T14:16:44.804Z,25.67
2023-01-01T14:19:48.022Z,25.80
2023-01-01T14:22:53.155Z,25.30
2023-01-01T14:25:56.623Z,26.40
2023-01-01T14:29:07.133Z,25.73
2023-01-01T14:32:15.953Z,25.47
2023-01-01T14:35:19.060Z,25.63
2023-01-01T14:38:27.382Z,23.93
2023-01-01T14:41:33.229Z,25.00
2023-01-01T14:44:39.751Z,25.63
2023-01-01T14:47:43.004Z,27.70
2023-01-01T14:50:50.514Z,27.27
2023-01-01T14:53:56.805Z,27.83
2023-01-01T14:57:01.127Z,29.83
2023-01-01T15:00:22.014Z,29.27
2023-01-01T15:03:27.941Z,30.50
2023-01-01T15:06:32.232Z,30.07
2023-01-01T15:09:36.884Z,31.97
2023-01-01T15:12:41.380Z,33.90
2023-01-01T15:15:47.702Z,34.60
2023-01-01T15:18:53.255Z,32.70
2023-01-01T15:21:57.081Z,34.90
2023-01-01T15:25:01.434Z,34.00
2023-01-01T15:28:04.608Z,33.77
2023-01-01T15:31:10.220Z,33.83
2023-01-01T15:34:27.739Z,34.17
2023-01-01T15:37:34.713Z,31.93
2023-01-01T15:40:40.319Z,34.47
2023-01-01T15:43:43.418Z,32.67
2023-01-01T15:46:50.189Z,33.30
2023-01-01T15:50:08.665Z,32.50
2023-01-01T15:53:17.081Z,32.93
2023-01-01T15:56:22.015Z,34.07
2023-01-01T15:59:29.238Z,34.50
2023-01-01T16:02:36.723Z,34.10
2023-01-01T16:05:48.091Z,31.77
2023-01-01T16:08:51.223Z,31.70
2023-01-01T16:11:56.136Z,30.13
2023-01-01T16:14:59.397Z,31.20
2023-01-01T16:18:04.251Z,31.30
2023-01-01T16:21:07.600Z,28.60
2023-01-01T16:24:13.813Z,31.30
2023-01-01T16:27:17.916Z,30.33
2023-01-01T16:30:20.957Z,28.67
2023-01-01T16:33:25.807Z,28.53
2023-01-01T16:36:29.505Z,30.67
2023-01-01T16:39:32.660Z,29.13
2023-01-01T16:42:35.797Z,29.10
2023-01-01T16:45:39.230Z,29.40
2023-01-01T16:48:43.912Z,27.77
2023-01-01T16:51:47.179Z,27.30
2023-01-01T16:54:50.405Z,28.77
2023-01-01T16:58:07.431Z,28.57
2023-01-01T17:01:16.964Z,26.80
2023-01-01T17:04:21.677Z,26.23
2023-01-01T17:07:24.779Z,26.23
2023-01-01T17:10:27.867Z,25.60
2023-01-01T17:13:31.189Z,23.50
2023-01-01T17:16:39.004Z,24.07
2023-01-01T17:19:44.521Z,23.70
2023-01-01T17:22:47.658Z,24.37
2023-01-01T17:25:51.181Z,22.73
2023-01-01T17:29:00.265Z,23.83
2023-01-01T17:32:04.128Z,23.03
2023-01-01T17:35:10.345Z,22.50
2023-01-01T17:38:13.415Z,22.13
2023-01-01T17:41:18.090Z,22.53
2023-01-01T17:44:21.582Z,22.60
2023-01-01T17:47:29.294Z,22.57
2023-01-01T17:50:37.024Z,22.20
2023-01-01T17:53:41.295Z,22.70
2023-01-01T17:56:44.519Z,21.47
2023-01-01T17:59:47.640Z,22.13
2023-01-01T18:02:51.165Z,20.40
2023-01-01T18:05:58.393Z,20.23
2023-01-01T18:09:03.102Z,19.70
2023-01-01T18:12:07.825Z,20.30
2023-01-01T18:15:11.986Z,20.00
2023-01-01T18:18:15.125Z,20.27
2023-01-01T18:21:22.138Z,19.13
2023-01-01T18:24:25.245Z,23.63
2023-01-01T18:27:28.627Z,25.93
2023-01-01T18:30:33.986Z,28.60
2023-01-01T18:33:38.080Z,28.73
2023-01-01T18:36:42.672Z,26.60
2023-01-01T18:39:46.007Z,25.73
2023-01-01T18:42:57.368Z,28.97
2023-01-01T18:46:00.560Z,27.40
2023-01-01T18:49:03.754Z,23.07
2023-01-01T18:52:17.988Z,23.90
2023-01-01T18:55:27.065Z,24.10
2023-01-01T18:58:33.748Z,21.60
2023-01-01T19:01:36.997Z,20.10
2023-01-01T19:04:40.149Z,21.23
2023-01-01T19:07:46.733Z,22.90
2023-01-01T19:10:51.277Z,20.00
2023-01-01T19:14:03.993Z,19.80
2023-01-01T19:17:14.716Z,19.27
2023-01-01T19:20:20.212Z,19.40
2023-01-01T19:23:27.497Z,18.87
2023-01-01T19:26:34.453Z,19.00
2023-01-01T19:29:41.616Z,18.27
2023-01-01T19:32:47.454Z,18.17
2023-01-01T19:35:50.747Z,17.50
2023-01-01T19:38:55.180Z,19.43
2023-01-01T19:42:03.865Z,19.70
2023-01-01T19:45:08.584Z,16.23
2023-01-01T19:48:11.697Z,17.23
2023-01-01T19:51:14.709Z,16.20
2023-01-01T19:54:20.650Z,16.63
2023-01-01T19:57:23.879Z,16.20
2023-01-01T20:00:28.146Z,15.40
2023-01-01T20:06:54.370Z,15.57
2023-01-01T20:09:58.848Z,14.90
2023-01-01T20:13:01.923Z,14.30
2023-01-01T20:16:05.427Z,16.30
2023-01-01T20:19:08.642Z,14.77
2023-01-01T20:22:14.518Z,16.03
2023-01-01T20:25:19.177Z,15.03
2023-01-01T20:28:39.763Z,14.47
2023-01-01T20:31:44.045Z,13.07
2023-01-01T20:34:47.184Z,14.70
2023-01-01T20:37:49.267Z,14.67
2023-01-01T20:40:53.736Z,13.13
2023-01-01T20:43:59.064Z,13.17
2023-01-01T20:47:02.140Z,14.90
2023-01-01T20:50:05.373Z,13.63
2023-01-01T20:53:08.531Z,14.07
2023-01-01T20:56:13.192Z,13.70
2023-01-01T20:59:35.899Z,14.00
2023-01-01T21:02:40.046Z,12.93
2023-01-01T21:05:43.274Z,14.63
2023-01-01T21:08:47.294Z,14.40
2023-01-01T21:11:51.785Z,14.33
2023-01-01T21:14:56.568Z,13.17
2023-01-01T21:18:00.271Z,14.90
2023-01-01T21:21:03.538Z,13.47
2023-01-01T21:24:16.326Z,14.20
2023-01-01T21:27:25.397Z,15.33
2023-01-01T21:30:28.438Z,12.87
2023-01-01T21:33:33.171Z,11.87
2023-01-01T21:36:36.446Z,12.93
2023-01-01T21:39:39.721Z,12.00
2023-01-01T21:42:46.788Z,11.80
2023-01-01T21:45:50.096Z,11.40
2023-01-01T21:48:59.493Z,11.53
2023-01-01T21:52:03.206Z,12.30
2023-01-01T21:55:20.169Z,12.23
2023-01-01T21:58:44.439Z,12.13
2023-01-01T22:01:50.366Z,13.30
2023-01-01T22:04:53.703Z,12.37
2023-01-01T22:07:58.230Z,12.80
2023-01-01T22:11:02.886Z,15.17
2023-01-01T22:14:14.685Z,13.43
2023-01-01T22:17:22.863Z,13.07
2023-01-01T22:20:26.672Z,14.17
2023-01-01T22:23:36.362Z,12.60
2023-01-01T22:26:39.523Z,12.83
2023-01-01T22:29:44.930Z,12.93
2023-01-01T22:32:51.839Z,13.20
2023-01-01T22:35:56.482Z,14.70
2023-01-01T22:39:03.390Z,13.80
2023-01-01T22:42:06.469Z,16.20
2023-01-01T22:45:17.092Z,13.80
2023-01-01T22:48:24.534Z,13.80
2023-01-01T22:51:33.317Z,13.80
2023-01-01T22:54:36.356Z,14.77
2023-01-01T22:57:39.379Z,13.97
2023-01-01T23:00:43.856Z,14.37
2023-01-01T23:03:46.996Z,13.80
2023-01-01T23:06:50.293Z,15.33
2023-01-01T23:09:53.438Z,15.03
2023-01-01T23:12:56.544Z,14.40
2023-01-01T23:16:03.123Z,14.97
2023-01-01T23:19:07.007Z,14.77
2023-01-01T23:22:10.332Z,14.93
2023-01-01T23:25:17.693Z,15.40
2023-01-01T23:28:21.090Z,15.60
2023-01-01T23:31:28.698Z,14.87
2023-01-01T23:34:32.297Z,15.80
2023-01-01T23:37:35.499Z,16.30
2023-01-01T23:40:38.552Z,16.27
2023-01-01T23:43:43.773Z,15.90
2023-01-01T23:46:49.074Z,16.83
2023-01-01T23:49:52.205Z,14.80
2023-01-01T23:52:55.300Z,15.27
2023-01-01T23:55:58.658Z,15.03
2023-01-01T23:59:01.824Z,15.40
